Time;durP1;ratioP1;P1;durP2;ratioP2;P2;SDS_P1;SDS_P2;PMS_P1;PMS_P2;Temp;Humidity;BMP_temperature;BMP_pressure;BME280_temperature;BME280_humidity;BME280_pressure;Samples;Min_cycle;Max_cycle;Signal;HPM_P1;HPM_P2
2022/10/23 07:33:21;;;;;;;;;;;;;;;16.60;78.07;96865.63;4212916;27;10324;-68
2022/10/23 07:35:23;;;;;;;;;;;;;;;16.90;77.30;96862.09;4210256;28;5844;-69
2022/10/23 07:37:26;;;;;;;;;;;;;;;17.15;76.93;96862.69;4189011;28;5730;-70
2022/10/23 07:39:29;;;;;;;;;;;;;;;17.33;76.48;96851.88;4190294;28;5830;-72
2022/10/23 07:41:32;;;;;;;;;;;;;;;17.51;75.89;96840.22;4206006;28;5800;-72
2022/10/23 07:43:34;;;;;;;;;;;;;;;17.63;75.49;96848.22;4203610;28;5877;-72
2022/10/23 07:45:37;;;;;;;;;;;;;;;17.75;75.50;96846.34;4206405;28;5799;-71
2022/10/23 07:47:40;;;;;;;;;;;;;;;17.87;75.15;96849.78;4202450;28;5828;-70
2022/10/23 07:49:45;;;;;;;;;;;;;;;17.96;75.01;96845.69;4200493;28;5812;-72
2022/10/23 07:51:48;;;;;;;;;;;;;;;18.03;74.99;96843.72;4195064;28;5956;-72
2022/10/23 07:53:53;;;;;;;;;;;;;;;18.09;74.75;96838.44;4182788;28;5746;-71
2022/10/23 07:55:57;;;;;;;;;;;;;;;18.16;74.59;96839.13;4193600;28;5713;-72
2022/10/23 07:58:00;;;;;;;;;;;;;;;18.21;74.64;96845.34;4195446;28;5723;-73
2022/10/23 08:00:05;;;;;;;;;;;;;;;18.26;74.39;96850.00;4195158;28;5712;-71
2022/10/23 08:02:11;;;;;;;;;;;;;;;18.28;74.27;96839.88;4195276;28;5717;-70
2022/10/23 08:04:14;;;;;;;;;;;;;;;18.31;74.18;96842.88;4204128;28;5772;-70
2022/10/23 08:06:18;;;;;;;;;;;;;;;18.35;74.05;96845.88;4184936;28;5963;-70
2022/10/23 08:08:21;;;;;;;;;;;;;;;18.38;74.04;96848.06;4195249;28;5743;-72
2022/10/23 08:10:24;;;;;;;;;;;;;;;18.42;73.72;96859.91;4208632;28;5758;-72
2022/10/23 08:12:26;;;;;;;;;;;;;;;18.45;73.73;96854.06;4196083;28;5068;-73
2022/10/23 08:14:29;;;;;;;;;;;;;;;18.46;73.68;96850.38;4193307;28;5738;-69
2022/10/23 08:16:34;;;;;;;;;;;;;;;18.47;73.25;96845.81;4192162;28;5911;-72
2022/10/23 08:18:36;;;;;;;;;;;;;;;18.49;73.43;96857.09;4193932;28;5782;-73
2022/10/23 08:20:39;;;;;;;;;;;;;;;18.51;73.42;96852.31;4187724;28;5860;-71
2022/10/23 08:22:43;;;;;;;;;;;;;;;18.52;73.21;96851.25;4186939;28;5800;-69
2022/10/23 08:24:46;;;;;;;;;;;;;;;18.54;73.26;96854.50;4190144;28;5680;-69
2022/10/23 08:26:49;;;;;;;;;;;;;;;18.54;73.16;96852.63;4200700;28;5742;-72
2022/10/23 08:28:54;;;;;;;;;;;;;;;18.54;72.70;96847.28;4188630;28;5734;-71
2022/10/23 08:30:57;;;;;;;;;;;;;;;18.58;72.69;96842.25;4194567;28;5709;-71
2022/10/23 08:32:59;;;;;;;;;;;;;;;18.60;72.59;96845.50;4189841;28;5709;-70
2022/10/23 08:35:03;;;;;;;;;;;;;;;18.60;72.53;96854.34;4176827;28;5730;-70
2022/10/23 08:37:05;;;;;;;;;;;;;;;18.61;72.60;96853.28;4186520;28;5734;-74
2022/10/23 08:39:10;;;;;;;;;;;;;;;18.63;72.42;96851.19;4172338;28;6434;-70
2022/10/23 08:41:23;;;;;;;;;;;;;;;18.66;72.27;96849.09;4182764;28;5928;-69
2022/10/23 08:43:34;;;;;;;;;;;;;;;18.67;71.97;96854.19;4180805;28;5875;-72
2022/10/23 08:45:43;;;;;;;;;;;;;;;18.67;71.91;96842.69;4179354;28;5712;-70
2022/10/23 08:47:52;;;;;;;;;;;;;;;18.70;71.99;96836.88;4173442;28;5877;-70
2022/10/23 08:49:58;;;;;;;;;;;;;;;18.72;71.67;96842.78;4180297;28;5872;-70
2022/10/23 08:52:07;;;;;;;;;;;;;;;18.72;71.96;96838.25;4178794;28;6734;-71
2022/10/23 08:54:21;;;;;;;;;;;;;;;18.71;71.66;96841.97;4179928;28;5827;-70
2022/10/23 08:56:27;;;;;;;;;;;;;;;18.73;71.65;96836.38;4177172;28;6661;-71
2022/10/23 08:58:38;;;;;;;;;;;;;;;18.74;71.62;96833.44;4184350;28;5716;-72
2022/10/23 09:00:42;;;;;;;;;;;;;;;18.76;71.20;96828.66;4172833;28;5713;-70
2022/10/23 09:02:47;;;;;;;;;;;;;;;18.77;71.48;96829.47;4177776;28;5726;-70
2022/10/23 09:04:53;;;;;;;;;;;;;;;18.81;71.08;96820.72;4179868;28;5774;-73
2022/10/23 09:07:07;;;;;;;;;;;;;;;18.86;71.01;96825.31;4175740;28;5722;-69
2022/10/23 09:09:40;;;;;;;;;;;;;;;18.88;70.80;96833.91;4173394;28;5732;-69
2022/10/23 09:11:50;;;;;;;;;;;;;;;18.88;70.72;96825.88;4168809;28;5864;-72
2022/10/23 09:14:15;;;;;;;;;;;;;;;18.88;70.81;96820.53;4175820;28;6366;-70
2022/10/23 09:16:29;;;;;;;;;;;;;;;18.87;70.48;96814.34;4171836;28;5958;-72
2022/10/23 09:18:32;;;;;;;;;;;;;;;18.88;70.86;96807.13;4175855;28;5843;-68
2022/10/23 09:20:35;;;;;;;;;;;;;;;18.86;70.28;96803.91;4175076;28;5967;-70
2022/10/23 09:22:39;;;;;;;;;;;;;;;18.87;70.57;96814.34;4187169;28;5855;-71
2022/10/23 09:24:43;;;;;;;;;;;;;;;18.91;70.14;96814.66;4174335;28;5817;-68
2022/10/23 09:26:48;;;;;;;;;;;;;;;18.93;70.25;96817.94;4174889;28;6330;-71
2022/10/23 09:28:54;;;;;;;;;;;;;;;18.95;70.34;96817.69;4179758;28;5720;-71
2022/10/23 09:31:06;;;;;;;;;;;;;;;18.95;70.04;96810.47;4176824;28;5743;-73
2022/10/23 09:33:17;;;;;;;;;;;;;;;19.00;69.88;96821.25;4179413;28;5729;-71
2022/10/23 09:35:22;;;;;;;;;;;;;;;19.04;69.97;96813.53;4181257;28;5763;-69
2022/10/23 09:37:27;;;;;;;;;;;;;;;19.04;69.81;96809.00;4183113;28;5792;-71
2022/10/23 09:39:32;;;;;;;;;;;;;;;19.05;69.51;96815.16;4173160;28;5726;-67
2022/10/23 09:41:39;;;;;;;;;;;;;;;19.06;69.64;96819.47;4181200;28;6069;-67
2022/10/23 09:43:42;;;;;;;;;;;;;;;19.06;69.42;96822.94;4176314;28;5897;-68
2022/10/23 09:45:57;;;;;;;;;;;;;;;19.04;69.38;96809.00;4177688;28;5701;-71
2022/10/23 09:48:19;;;;;;;;;;;;;;;19.04;69.21;96817.03;4186100;28;5818;-69
2022/10/23 09:50:21;;;;;;;;;;;;;;;19.02;69.15;96816.44;4176668;28;5913;-67
2022/10/23 09:52:30;;;;;;;;;;;;;;;18.99;69.06;96821.50;4174800;28;5737;-66
2022/10/23 09:54:36;;;;;;;;;;;;;;;18.97;69.23;96831.66;4186363;28;5688;-66
2022/10/23 09:56:41;;;;;;;;;;;;;;;18.96;68.92;96825.47;4180475;28;5819;-66
2022/10/23 09:58:54;;;;;;;;;;;;;;;18.95;68.77;96837.25;4181886;28;5857;-66
2022/10/23 10:00:57;;;;;;;;;;;;;;;18.96;68.76;96828.16;4184448;28;5713;-66
2022/10/23 10:03:01;;;;;;;;;;;;;;;18.98;68.65;96825.22;4175306;28;5786;-66
2022/10/23 10:05:22;;;;;;;;;;;;;;;19.00;68.65;96836.50;4190918;28;5800;-66
2022/10/23 10:07:27;;;;;;;;;;;;;;;19.02;68.38;96832.53;4174742;28;5842;-66
2022/10/23 10:09:33;;;;;;;;;;;;;;;19.04;68.28;96827.75;4185455;28;5724;-66
2022/10/23 10:11:44;;;;;;;;;;;;;;;19.08;68.59;96836.91;4185598;28;5748;-67
2022/10/23 10:14:03;;;;;;;;;;;;;;;19.10;68.59;96836.66;4180781;28;5881;-66
2022/10/23 10:16:11;;;;;;;;;;;;;;;19.12;68.16;96845.25;4179906;28;5911;-66
2022/10/23 10:18:22;;;;;;;;;;;;;;;19.12;68.41;96851.44;4178554;28;7738;-66
2022/10/23 10:21:00;;;;;;;;;;;;;;;19.12;67.85;96874.72;4177044;28;5724;-66
2022/10/23 10:23:11;;;;;;;;;;;;;;;19.13;68.16;96861.09;4156449;28;5899;-66
2022/10/23 10:25:19;;;;;;;;;;;;;;;19.11;68.08;96865.06;4181061;28;5809;-65
2022/10/23 10:27:39;;;;;;;;;;;;;;;19.10;68.18;96871.50;4180223;28;5273;-65
2022/10/23 10:30:05;;;;;;;;;;;;;;;19.13;67.94;96861.09;4179198;28;6329;-65
2022/10/23 10:32:24;;;;;;;;;;;;;;;19.15;67.58;96856.31;4178900;28;5709;-65
2022/10/23 10:34:32;;;;;;;;;;;;;;;19.16;67.75;96865.97;4175665;28;5709;-65
2022/10/23 10:36:46;;;;;;;;;;;;;;;19.18;67.42;96847.78;4176219;28;5887;-65
2022/10/23 10:38:53;;;;;;;;;;;;;;;19.20;67.66;96829.56;4174747;28;6145;-65
2022/10/23 10:41:20;;;;;;;;;;;;;;;19.22;67.70;96831.19;4173701;28;5811;-65
2022/10/23 10:43:32;;;;;;;;;;;;;;;19.22;67.56;96810.56;4179249;28;5709;-66
2022/10/23 10:45:39;;;;;;;;;;;;;;;19.25;67.40;96803.91;4178002;28;5866;-65
2022/10/23 10:47:56;;;;;;;;;;;;;;;19.30;67.24;96823.56;4179483;28;6095;-65
2022/10/23 10:50:11;;;;;;;;;;;;;;;19.30;67.34;96817.38;4176602;28;6074;-65
2022/10/23 10:52:20;;;;;;;;;;;;;;;19.35;67.30;96820.13;4178052;28;5800;-65
2022/10/23 10:54:37;;;;;;;;;;;;;;;19.38;67.24;96819.63;4172163;28;5705;-65
2022/10/23 10:56:43;;;;;;;;;;;;;;;19.39;66.90;96837.34;4177593;28;5717;-65
2022/10/23 10:58:51;;;;;;;;;;;;;;;19.40;67.05;96847.00;4181996;28;5699;-65
2022/10/23 11:00:58;;;;;;;;;;;;;;;19.39;66.82;96848.06;4178806;28;6854;-66
2022/10/23 11:03:11;;;;;;;;;;;;;;;19.38;66.99;96847.25;4173169;28;7733;-66
2022/10/23 11:05:25;;;;;;;;;;;;;;;19.37;66.58;96834.09;4175546;28;5837;-66
2022/10/23 11:07:36;;;;;;;;;;;;;;;19.35;66.84;96790.63;4174311;28;5788;-66
2022/10/23 11:09:40;;;;;;;;;;;;;;;19.32;66.86;96751.75;4178308;28;5864;-66
2022/10/23 11:11:43;;;;;;;;;;;;;;;19.30;67.05;96753.06;4177925;28;6540;-66
2022/10/23 11:13:50;;;;;;;;;;;;;;;19.29;66.84;96772.88;4173250;28;5644;-67
2022/10/23 11:15:57;;;;;;;;;;;;;;;19.30;66.88;96801.31;4171404;28;7788;-66
2022/10/23 11:18:05;;;;;;;;;;;;;;;19.29;66.98;96773.69;4177245;28;5852;-66
2022/10/23 11:20:22;;;;;;;;;;;;;;;19.33;67.01;96776.66;4175622;28;5734;-66
2022/10/23 11:22:30;;;;;;;;;;;;;;;19.36;66.57;96805.66;4174870;28;5943;-67
2022/10/23 11:25:11;;;;;;;;;;;;;;;19.37;66.98;96770.59;4183915;28;5816;-66
2022/10/23 11:27:25;;;;;;;;;;;;;;;19.34;66.68;96754.97;4173237;28;5854;-70
2022/10/23 11:29:48;;;;;;;;;;;;;;;19.36;66.76;96773.47;4177278;28;5817;-71
2022/10/23 11:32:05;;;;;;;;;;;;;;;19.36;66.41;96784.22;4176440;28;5817;-70
2022/10/23 11:34:49;;;;;;;;;;;;;;;19.35;66.71;96775.34;4174872;28;5911;-70
2022/10/23 11:36:54;;;;;;;;;;;;;;;19.35;66.66;96782.59;4172848;28;5821;-70
2022/10/23 11:39:14;;;;;;;;;;;;;;;19.34;66.54;96776.41;4177085;28;5717;-70
2022/10/23 11:41:20;;;;;;;;;;;;;;;19.35;66.53;96755.78;4173987;28;5738;-70
2022/10/23 11:43:32;;;;;;;;;;;;;;;19.34;66.57;96752.28;4175870;28;5761;-70
2022/10/23 11:45:38;;;;;;;;;;;;;;;19.34;66.63;96735.41;4176403;28;8039;-70
2022/10/23 11:47:43;;;;;;;;;;;;;;;19.35;66.67;96735.16;4186823;28;5904;-70
2022/10/23 11:49:45;;;;;;;;;;;;;;;19.35;66.44;96735.16;4179117;28;5812;-70
2022/10/23 11:52:00;;;;;;;;;;;;;;;19.34;66.65;96738.09;4185784;28;5779;-70
2022/10/23 11:54:25;;;;;;;;;;;;;;;19.30;66.45;96737.78;4174674;28;5819;-69
2022/10/23 11:56:30;;;;;;;;;;;;;;;19.34;66.28;96749.63;4173418;28;6422;-70
2022/10/23 11:58:51;;;;;;;;;;;;;;;19.35;66.36;96734.34;4167831;28;5742;-70
2022/10/23 12:01:01;;;;;;;;;;;;;;;19.33;66.47;96736.47;4177203;28;5730;-70
2022/10/23 12:03:05;;;;;;;;;;;;;;;19.34;66.41;96752.28;4181442;28;5839;-70
2022/10/23 12:05:25;;;;;;;;;;;;;;;19.34;66.57;96732.72;4176840;28;5817;-70
2022/10/23 12:07:31;;;;;;;;;;;;;;;19.34;66.75;96730.03;4179849;28;5736;-71
2022/10/23 12:09:40;;;;;;;;;;;;;;;19.34;66.56;96733.53;4178367;28;6927;-70
2022/10/23 12:11:47;;;;;;;;;;;;;;;19.35;66.56;96729.78;4181195;28;5936;-70
2022/10/23 12:13:50;;;;;;;;;;;;;;;19.38;66.63;96733.88;4175088;28;5888;-70
2022/10/23 12:15:53;;;;;;;;;;;;;;;19.36;66.66;96709.16;4183221;28;5699;-70
2022/10/23 12:18:14;;;;;;;;;;;;;;;19.38;66.74;96707.06;4186600;28;5632;-70
2022/10/23 12:20:27;;;;;;;;;;;;;;;19.38;66.86;96699.00;4180733;28;5705;-70
2022/10/23 12:22:41;;;;;;;;;;;;;;;19.41;66.71;96706.53;4190639;28;5780;-70
2022/10/23 12:25:00;;;;;;;;;;;;;;;19.42;66.70;96713.53;4182291;28;5757;-70
2022/10/23 12:27:26;;;;;;;;;;;;;;;19.43;66.72;96707.09;4178213;28;5197;-70
2022/10/23 12:29:41;;;;;;;;;;;;;;;19.45;66.38;96710.34;4181466;28;5081;-70
2022/10/23 12:31:52;;;;;;;;;;;;;;;19.46;66.74;96709.28;4183076;28;5808;-70
2022/10/23 12:34:06;;;;;;;;;;;;;;;19.45;66.46;96707.66;4184521;28;5814;-70
2022/10/23 12:36:28;;;;;;;;;;;;;;;19.45;66.91;96702.28;4180442;28;5840;-70
2022/10/23 12:38:32;;;;;;;;;;;;;;;19.46;66.58;96682.47;4180706;28;5709;-70
2022/10/23 12:40:38;;;;;;;;;;;;;;;19.46;66.68;96677.09;4178509;28;6043;-70
2022/10/23 12:42:49;;;;;;;;;;;;;;;19.45;66.77;96672.81;4182115;28;5081;-70
2022/10/23 12:44:58;;;;;;;;;;;;;;;19.43;66.46;96674.94;4189597;28;5728;-71
2022/10/23 12:47:03;;;;;;;;;;;;;;;19.39;66.74;96680.00;4192174;28;5692;-71
2022/10/23 12:49:15;;;;;;;;;;;;;;;19.39;66.79;96674.63;4202215;28;5857;-71
2022/10/23 12:51:23;;;;;;;;;;;;;;;19.39;66.71;96676.50;4202105;28;5786;-71
2022/10/23 12:53:26;;;;;;;;;;;;;;;19.41;66.63;96679.75;4199427;28;5699;-71
2022/10/23 12:55:31;;;;;;;;;;;;;;;19.39;66.98;96679.19;4189581;28;5695;-71
2022/10/23 12:57:41;;;;;;;;;;;;;;;19.41;66.95;96685.09;4202282;28;5687;-71
2022/10/23 12:59:45;;;;;;;;;;;;;;;19.39;66.86;96681.88;4198433;28;5716;-70
2022/10/23 13:01:48;;;;;;;;;;;;;;;19.40;66.84;96672.75;4198314;28;5699;-70
2022/10/23 13:04:01;;;;;;;;;;;;;;;19.39;67.30;96676.50;4202348;28;5684;-70
2022/10/23 13:06:07;;;;;;;;;;;;;;;19.41;67.11;96674.38;4193974;28;5914;-70
2022/10/23 13:08:11;;;;;;;;;;;;;;;19.41;66.89;96669.03;4202218;28;5703;-70
2022/10/23 13:10:15;;;;;;;;;;;;;;;19.43;67.10;96674.94;4201112;28;5881;-70
2022/10/23 13:12:23;;;;;;;;;;;;;;;19.44;67.02;96679.22;4201840;28;6196;-71
2022/10/23 13:14:32;;;;;;;;;;;;;;;19.43;66.89;96677.63;4194985;28;5727;-70
2022/10/23 13:16:35;;;;;;;;;;;;;;;19.44;67.17;96666.63;4201904;28;5937;-71
2022/10/23 13:18:41;;;;;;;;;;;;;;;19.43;67.10;96656.97;4201974;28;5770;-71
2022/10/23 13:20:57;;;;;;;;;;;;;;;19.44;66.76;96663.16;4201794;28;5683;-71
2022/10/23 13:23:10;;;;;;;;;;;;;;;19.44;66.87;96652.41;4200450;28;5632;-71
2022/10/23 13:25:22;;;;;;;;;;;;;;;19.44;66.87;96644.38;4193538;28;5715;-71
2022/10/23 13:27:26;;;;;;;;;;;;;;;19.44;66.88;96672.00;4201822;28;5780;-71
2022/10/23 13:29:31;;;;;;;;;;;;;;;19.43;67.16;96667.69;4201706;28;5696;-71
2022/10/23 13:31:34;;;;;;;;;;;;;;;19.43;66.72;96669.56;4198891;28;5779;-71
2022/10/23 13:33:39;;;;;;;;;;;;;;;19.42;66.93;96668.75;4196353;28;6767;-71
2022/10/23 13:35:42;;;;;;;;;;;;;;;19.43;67.17;96650.81;4201543;28;5707;-71
2022/10/23 13:37:45;;;;;;;;;;;;;;;19.43;67.07;96659.66;4201676;28;5721;-71
2022/10/23 13:39:59;;;;;;;;;;;;;;;19.43;67.00;96650.81;4201452;28;5695;-71
2022/10/23 13:42:12;;;;;;;;;;;;;;;19.43;66.83;96640.88;4201448;28;5788;-71
2022/10/23 13:44:16;;;;;;;;;;;;;;;19.44;67.10;96641.69;4193035;28;5750;-71
2022/10/23 13:46:21;;;;;;;;;;;;;;;19.43;67.09;96650.81;4201159;28;6494;-71
2022/10/23 13:48:24;;;;;;;;;;;;;;;19.44;66.78;96642.50;4201248;28;5825;-71
2022/10/23 13:50:27;;;;;;;;;;;;;;;19.45;67.12;96637.94;4196985;28;5621;-71
2022/10/23 13:52:30;;;;;;;;;;;;;;;19.46;66.81;96639.56;4180308;28;5824;-70
2022/10/23 13:54:32;;;;;;;;;;;;;;;19.46;66.78;96650.28;4199817;28;6326;-70
2022/10/23 13:56:37;;;;;;;;;;;;;;;19.44;66.88;96644.38;4201259;28;5913;-71
2022/10/23 13:58:40;;;;;;;;;;;;;;;19.44;67.10;96650.56;4201351;28;6876;-69
2022/10/23 14:00:45;;;;;;;;;;;;;;;19.42;66.87;96646.50;4201177;28;5747;-69
2022/10/23 14:02:48;;;;;;;;;;;;;;;19.42;66.92;96620.50;4174367;28;5666;-69
2022/10/23 14:04:51;;;;;;;;;;;;;;;19.45;67.25;96605.78;4194186;28;6551;-69
2022/10/23 14:06:57;;;;;;;;;;;;;;;19.44;66.79;96585.41;4201154;28;5083;-70
2022/10/23 14:09:00;;;;;;;;;;;;;;;19.43;66.85;96616.75;4200701;28;5700;-70
2022/10/23 14:11:03;;;;;;;;;;;;;;;19.44;67.17;96618.38;4192804;28;5707;-70
2022/10/23 14:13:07;;;;;;;;;;;;;;;19.46;67.20;96618.13;4200904;28;5802;-70
2022/10/23 14:15:11;;;;;;;;;;;;;;;19.46;66.74;96620.81;4200870;28;5718;-70
2022/10/23 14:17:14;;;;;;;;;;;;;;;19.44;67.18;96617.56;4200772;28;5798;-69
2022/10/23 14:19:16;;;;;;;;;;;;;;;19.43;67.13;96616.75;4184379;28;5680;-71
2022/10/23 14:21:21;;;;;;;;;;;;;;;19.43;67.05;96615.97;4192057;28;5709;-71
2022/10/23 14:23:24;;;;;;;;;;;;;;;19.42;67.34;96608.97;4200370;28;5687;-70
2022/10/23 14:25:26;;;;;;;;;;;;;;;19.43;67.29;96611.41;4200690;28;6370;-71
2022/10/23 14:27:30;;;;;;;;;;;;;;;19.42;67.00;96603.63;4200670;28;5703;-69
2022/10/23 14:29:34;;;;;;;;;;;;;;;19.44;67.05;96614.88;4192446;28;5704;-69
2022/10/23 14:31:36;;;;;;;;;;;;;;;19.43;67.24;96597.19;4199757;28;5691;-70
2022/10/23 14:33:40;;;;;;;;;;;;;;;19.43;67.15;96607.91;4200642;28;5691;-70
2022/10/23 14:35:43;;;;;;;;;;;;;;;19.43;67.22;96615.97;4200508;28;5798;-70
2022/10/23 14:37:45;;;;;;;;;;;;;;;19.43;67.23;96607.91;4200480;28;5779;-71
2022/10/23 14:39:48;;;;;;;;;;;;;;;19.43;67.06;96618.63;4195624;28;6536;-71
2022/10/23 14:41:52;;;;;;;;;;;;;;;19.43;67.24;96618.63;4197282;28;5680;-71
2022/10/23 14:43:55;;;;;;;;;;;;;;;19.43;67.07;96607.91;4199383;28;5692;-69
2022/10/23 14:46:08;;;;;;;;;;;;;;;19.43;66.96;96597.19;4200509;28;5790;-69
2022/10/23 14:48:11;;;;;;;;;;;;;;;19.41;67.16;96593.97;4192912;28;5732;-69
2022/10/23 14:50:14;;;;;;;;;;;;;;;19.39;67.19;96599.59;4200244;28;5766;-70
2022/10/23 14:52:17;;;;;;;;;;;;;;;19.41;67.25;96597.44;4200370;28;5087;-70
2022/10/23 14:54:20;;;;;;;;;;;;;;;19.42;67.10;96600.94;4200608;28;5703;-70
2022/10/23 14:56:23;;;;;;;;;;;;;;;19.41;66.81;96597.44;4200319;28;5747;-70
2022/10/23 14:58:27;;;;;;;;;;;;;;;19.42;67.00;96592.91;4199052;28;5684;-70
2022/10/23 15:00:30;;;;;;;;;;;;;;;19.40;66.87;96586.97;4193936;28;5683;-70
2022/10/23 15:02:34;;;;;;;;;;;;;;;19.41;66.91;96588.59;4200328;28;5700;-70
2022/10/23 15:04:37;;;;;;;;;;;;;;;19.38;67.25;96589.13;4200257;28;5925;-70
2022/10/23 15:06:40;;;;;;;;;;;;;;;19.36;67.21;96578.63;4196821;28;5780;-70
2022/10/23 15:08:43;;;;;;;;;;;;;;;19.37;66.78;96579.47;4195566;28;5695;-70
2022/10/23 15:10:45;;;;;;;;;;;;;;;19.37;66.76;96576.78;4200493;28;6173;-70
2022/10/23 15:12:48;;;;;;;;;;;;;;;19.38;66.91;96589.13;4198955;28;5629;-70
2022/10/23 15:14:51;;;;;;;;;;;;;;;19.38;66.83;96576.53;4200278;28;5692;-70
2022/10/23 15:16:54;;;;;;;;;;;;;;;19.38;66.80;96578.41;4200173;28;5695;-70
2022/10/23 15:18:58;;;;;;;;;;;;;;;19.37;66.97;96566.06;4191875;28;5773;-70
2022/10/23 15:21:01;;;;;;;;;;;;;;;19.36;67.15;96567.09;4200140;28;5851;-70
2022/10/23 15:23:04;;;;;;;;;;;;;;;19.37;66.98;96564.19;4199885;28;5799;-70
2022/10/23 15:25:08;;;;;;;;;;;;;;;19.36;67.00;96561.72;4199966;28;5695;-70
2022/10/23 15:27:14;;;;;;;;;;;;;;;19.32;66.96;96564.13;4183634;28;5787;-70
2022/10/23 15:29:17;;;;;;;;;;;;;;;19.30;66.96;96557.41;4183611;28;5857;-70
2022/10/23 15:31:56;;;;;;;;;;;;;;;19.32;67.28;96560.63;4199995;28;5805;-70
2022/10/23 15:34:01;;;;;;;;;;;;;;;19.35;67.21;96562.78;4167017;28;5708;-70
2022/10/23 15:36:04;;;;;;;;;;;;;;;19.36;67.30;96564.41;4166788;28;6386;-70
2022/10/23 15:38:06;;;;;;;;;;;;;;;19.35;67.23;96576.19;4158446;28;5705;-70
2022/10/23 15:40:10;;;;;;;;;;;;;;;19.34;67.17;96587.97;4166634;28;5701;-70
2022/10/23 15:42:13;;;;;;;;;;;;;;;19.30;67.03;96584.19;4166976;28;5701;-70
2022/10/23 15:44:18;;;;;;;;;;;;;;;19.31;66.99;96588.50;4159738;28;5725;-70
2022/10/23 15:46:21;;;;;;;;;;;;;;;19.32;67.01;96612.38;4154993;28;5682;-70
2022/10/23 15:48:23;;;;;;;;;;;;;;;19.33;66.92;96597.91;4169921;28;5780;-71
2022/10/23 15:50:28;;;;;;;;;;;;;;;19.33;67.24;96599.78;4170144;28;5705;-70
2022/10/23 15:52:31;;;;;;;;;;;;;;;19.34;67.12;96593.34;4170087;28;5721;-70
2022/10/23 15:54:34;;;;;;;;;;;;;;;19.34;66.93;96583.44;4169793;28;5709;-70
2022/10/23 15:56:36;;;;;;;;;;;;;;;19.33;67.24;96576.44;4161845;28;6395;-70
2022/10/23 15:58:39;;;;;;;;;;;;;;;19.31;67.05;96567.06;4169940;28;5702;-70
2022/10/23 16:00:42;;;;;;;;;;;;;;;19.30;67.12;96565.44;4166393;28;5869;-70
2022/10/23 16:02:45;;;;;;;;;;;;;;;19.31;66.91;96575.91;4165763;28;5797;-70
2022/10/23 16:04:48;;;;;;;;;;;;;;;19.34;66.99;96571.91;4155602;28;5801;-70
2022/10/23 16:06:52;;;;;;;;;;;;;;;19.34;67.11;96579.94;4148200;28;5849;-71
2022/10/23 16:08:55;;;;;;;;;;;;;;;19.36;67.23;96597.38;4147031;28;5748;-70
2022/10/23 16:10:58;;;;;;;;;;;;;;;19.35;67.09;96600.31;4147581;28;5798;-70
2022/10/23 16:13:01;;;;;;;;;;;;;;;19.34;67.08;96609.44;4147232;28;5726;-70
2022/10/23 16:15:06;;;;;;;;;;;;;;;19.33;66.95;96613.97;4142552;28;5744;-70
2022/10/23 16:17:09;;;;;;;;;;;;;;;19.34;67.43;96628.19;4149731;28;5760;-71
2022/10/23 16:19:13;;;;;;;;;;;;;;;19.32;67.26;96631.13;4152193;28;5919;-71
2022/10/23 16:21:18;;;;;;;;;;;;;;;19.34;67.26;96626.31;4149984;28;5841;-71
2022/10/23 16:23:22;;;;;;;;;;;;;;;19.34;66.90;96623.63;4144374;28;5805;-70
2022/10/23 16:25:25;;;;;;;;;;;;;;;19.32;66.84;96623.09;4146429;28;5715;-68
2022/10/23 16:27:28;;;;;;;;;;;;;;;19.31;66.97;96623.34;4150587;28;5857;-69
2022/10/23 16:29:31;;;;;;;;;;;;;;;19.33;66.96;96631.94;4144049;28;5862;-69
2022/10/23 16:31:34;;;;;;;;;;;;;;;19.32;67.00;96622.28;4160318;28;5919;-69
2022/10/23 16:33:37;;;;;;;;;;;;;;;19.31;67.14;96616.09;4182575;28;5716;-69
2022/10/23 16:35:40;;;;;;;;;;;;;;;19.32;67.03;96624.97;4181010;28;5813;-69
2022/10/23 16:37:43;;;;;;;;;;;;;;;19.32;67.10;96623.09;4177635;28;5824;-67
2022/10/23 16:39:47;;;;;;;;;;;;;;;19.31;66.81;96631.38;4180155;28;5864;-68
2022/10/23 16:41:50;;;;;;;;;;;;;;;19.30;67.21;96635.13;4180794;28;6005;-67
2022/10/23 16:43:53;;;;;;;;;;;;;;;19.30;66.95;96640.47;4178997;28;5695;-68
2022/10/23 16:46:04;;;;;;;;;;;;;;;19.30;66.98;96641.28;4187242;28;6398;-68
2022/10/23 16:48:07;;;;;;;;;;;;;;;19.31;66.92;96626.03;4191433;28;5740;-67
2022/10/23 16:50:10;;;;;;;;;;;;;;;19.31;67.05;96636.75;4173554;28;5815;-69
2022/10/23 16:52:12;;;;;;;;;;;;;;;19.29;66.79;96628.16;4190200;28;5762;-68
2022/10/23 16:54:16;;;;;;;;;;;;;;;19.28;66.84;96639.94;4176586;28;5742;-68
2022/10/23 16:56:23;;;;;;;;;;;;;;;19.29;66.79;96645.03;4179333;28;5784;-68
2022/10/23 16:58:27;;;;;;;;;;;;;;;19.31;66.72;96647.47;4175736;28;6461;-68
2022/10/23 17:00:33;;;;;;;;;;;;;;;19.32;66.72;96649.09;4178160;28;5754;-68
2022/10/23 17:02:37;;;;;;;;;;;;;;;19.32;66.82;96657.13;4178969;28;5739;-68
2022/10/23 17:04:40;;;;;;;;;;;;;;;19.34;66.55;96663.03;4183484;28;5800;-69
2022/10/23 17:06:43;;;;;;;;;;;;;;;19.34;66.53;96668.41;4176333;28;5739;-70
2022/10/23 17:08:46;;;;;;;;;;;;;;;19.35;66.38;96670.81;4178274;28;6409;-70
2022/10/23 17:10:49;;;;;;;;;;;;;;;19.37;66.68;96674.09;4183960;28;5871;-70
2022/10/23 17:12:54;;;;;;;;;;;;;;;19.39;66.24;96684.56;4180562;28;5791;-69
2022/10/23 17:14:57;;;;;;;;;;;;;;;19.40;66.54;96699.56;4176390;28;5837;-69
2022/10/23 17:17:01;;;;;;;;;;;;;;;19.40;66.27;96704.94;4179749;28;5906;-70
2022/10/23 17:19:06;;;;;;;;;;;;;;;19.40;66.69;96723.69;4176064;28;5863;-70
2022/10/23 17:21:23;;;;;;;;;;;;;;;19.41;66.63;96730.69;4181059;28;5709;-69
2022/10/23 17:23:26;;;;;;;;;;;;;;;19.41;66.51;96750.25;4175812;28;5983;-71
2022/10/23 17:25:29;;;;;;;;;;;;;;;19.42;66.41;96767.13;4176027;28;5730;-72
2022/10/23 17:27:32;;;;;;;;;;;;;;;19.43;66.47;96787.53;4181069;28;5839;-72
2022/10/23 17:29:36;;;;;;;;;;;;;;;19.43;66.46;96803.59;4174735;28;5934;-71
2022/10/23 17:31:42;;;;;;;;;;;;;;;19.42;66.04;96816.22;4183027;28;5716;-71
2022/10/23 17:33:45;;;;;;;;;;;;;;;19.41;66.41;96813.78;4176790;28;5709;-71
2022/10/23 17:35:49;;;;;;;;;;;;;;;19.42;66.07;96820.75;4180270;28;5923;-71
2022/10/23 17:37:54;;;;;;;;;;;;;;;19.41;66.18;96851.31;4178862;28;5817;-75
2022/10/23 17:39:57;;;;;;;;;;;;;;;19.43;66.36;96851.88;4176599;28;5828;-76
2022/10/23 17:42:03;;;;;;;;;;;;;;;19.43;66.00;96850.00;4181864;28;5724;-76
2022/10/23 17:44:06;;;;;;;;;;;;;;;19.39;66.05;96850.75;4174371;28;5781;-76
2022/10/23 17:46:12;;;;;;;;;;;;;;;19.36;66.19;96869.97;4175744;28;5812;-77
2022/10/23 17:48:15;;;;;;;;;;;;;;;19.32;66.26;96874.22;4177689;28;5742;-76
2022/10/23 17:50:19;;;;;;;;;;;;;;;19.28;66.11;96881.97;4177358;28;5823;-75
2022/10/23 17:52:22;;;;;;;;;;;;;;;19.30;66.39;96900.47;4174675;28;5828;-74
2022/10/23 17:54:26;;;;;;;;;;;;;;;19.33;66.17;96911.50;4173051;28;6012;-70
2022/10/23 17:56:31;;;;;;;;;;;;;;;19.35;66.65;96905.91;4175733;28;7735;-73
2022/10/23 17:58:35;;;;;;;;;;;;;;;19.38;66.31;96905.41;4178416;28;5721;-71
2022/10/23 18:00:38;;;;;;;;;;;;;;;19.38;66.29;96911.59;4175017;28;5812;-77
2022/10/23 18:02:42;;;;;;;;;;;;;;;19.38;66.33;96910.78;4175515;28;5698;-78
2022/10/23 18:04:45;;;;;;;;;;;;;;;19.38;66.56;96910.78;4175506;28;5742;-81
2022/10/23 18:06:50;;;;;;;;;;;;;;;19.38;66.62;96911.59;4178244;28;6530;-80
2022/10/23 18:08:53;;;;;;;;;;;;;;;19.39;66.06;96907.03;4175442;28;5960;-83
2022/10/23 18:10:56;;;;;;;;;;;;;;;19.40;66.47;96903.31;4180094;28;5815;-79
2022/10/23 18:12:59;;;;;;;;;;;;;;;19.42;66.57;96909.22;4178211;28;5801;-75
2022/10/23 18:15:03;;;;;;;;;;;;;;;19.43;66.33;96903.63;4179435;28;6353;-74
2022/10/23 18:17:06;;;;;;;;;;;;;;;19.45;66.32;96895.31;4177341;28;5792;-82
2022/10/23 18:19:10;;;;;;;;;;;;;;;19.48;66.41;96894.84;4179229;28;5722;-83
2022/10/23 18:21:14;;;;;;;;;;;;;;;19.47;66.22;96888.66;4183027;28;5831;-82
2022/10/23 18:23:17;;;;;;;;;;;;;;;19.49;66.37;96888.44;4180773;28;5812;-81
2022/10/23 18:25:20;;;;;;;;;;;;;;;19.50;66.46;96906.13;4177483;28;5708;-85
2022/10/23 18:27:23;;;;;;;;;;;;;;;19.51;66.55;96910.44;4181578;28;5843;-80
2022/10/23 18:29:26;;;;;;;;;;;;;;;19.52;66.13;96909.38;4177866;28;5811;-85
2022/10/23 18:31:29;;;;;;;;;;;;;;;19.55;66.21;96916.09;4178029;28;5911;-85
2022/10/23 18:33:32;;;;;;;;;;;;;;;19.54;66.42;96923.34;4174985;28;5731;-87
2022/10/23 18:35:38;;;;;;;;;;;;;;;19.57;66.47;96914.00;4177155;28;5878;-84
2022/10/23 18:37:41;;;;;;;;;;;;;;;19.57;66.14;96892.56;4181348;28;5804;-79
2022/10/23 18:39:44;;;;;;;;;;;;;;;19.57;66.16;96897.91;4179039;28;5815;-80
2022/10/23 18:41:47;;;;;;;;;;;;;;;19.59;66.22;96869.78;4177486;28;5864;-74